sensor_id;sensor_type;location;lat;lon;timestamp;P1;durP1;ratioP1;P2;durP2;ratioP2
5867;SDS011;2960;49.142;7.768;2024-03-23T00:54:34;11.07;;;5.03;;
5867;SDS011;2960;49.142;7.768;2024-03-23T00:57:01;11.37;;;5.50;;
5867;SDS011;2960;49.142;7.768;2024-03-23T00:59:28;11.03;;;4.93;;
5867;SDS011;2960;49.142;7.768;2024-03-23T01:01:56;13.27;;;5.57;;
5867;SDS011;2960;49.142;7.768;2024-03-23T01:04:23;11.50;;;5.50;;
5867;SDS011;2960;49.142;7.768;2024-03-23T01:06:49;11.33;;;5.27;;
5867;SDS011;2960;49.142;7.768;2024-03-23T01:09:16;11.77;;;5.53;;
5867;SDS011;2960;49.142;7.768;2024-03-23T01:11:43;11.93;;;5.23;;
5867;SDS011;2960;49.142;7.768;2024-03-23T01:14:10;14.30;;;5.10;;
5867;SDS011;2960;49.142;7.768;2024-03-23T01:16:36;10.97;;;4.87;;
5867;SDS011;2960;49.142;7.768;2024-03-23T01:19:04;11.33;;;5.63;;
5867;SDS011;2960;49.142;7.768;2024-03-23T01:21:30;11.60;;;5.60;;
5867;SDS011;2960;49.142;7.768;2024-03-23T01:23:58;11.23;;;5.23;;
5867;SDS011;2960;49.142;7.768;2024-03-23T01:26:24;11.17;;;5.20;;
5867;SDS011;2960;49.142;7.768;2024-03-23T01:28:52;11.00;;;5.00;;
5867;SDS011;2960;49.142;7.768;2024-03-23T01:31:19;11.53;;;4.83;;
5867;SDS011;2960;49.142;7.768;2024-03-23T01:33:46;11.00;;;5.20;;
5867;SDS011;2960;49.142;7.768;2024-03-23T01:36:12;11.30;;;5.20;;
5867;SDS011;2960;49.142;7.768;2024-03-23T01:38:39;11.20;;;4.80;;
5867;SDS011;2960;49.142;7.768;2024-03-23T01:41:05;10.93;;;4.80;;
5867;SDS011;2960;49.142;7.768;2024-03-23T01:43:32;12.23;;;5.13;;
5867;SDS011;2960;49.142;7.768;2024-03-23T01:46:00;11.00;;;5.30;;
5867;SDS011;2960;49.142;7.768;2024-03-23T01:48:27;11.30;;;5.20;;
5867;SDS011;2960;49.142;7.768;2024-03-23T01:50:53;11.17;;;5.37;;
5867;SDS011;2960;49.142;7.768;2024-03-23T01:53:21;11.90;;;5.40;;
5867;SDS011;2960;49.142;7.768;2024-03-23T01:55:48;11.53;;;5.13;;
5867;SDS011;2960;49.142;7.768;2024-03-23T01:58:17;12.10;;;5.30;;
5867;SDS011;2960;49.142;7.768;2024-03-23T02:00:44;10.77;;;5.40;;
5867;SDS011;2960;49.142;7.768;2024-03-23T02:03:25;10.67;;;5.10;;
5867;SDS011;2960;49.142;7.768;2024-03-23T02:05:52;14.47;;;5.77;;
5867;SDS011;2960;49.142;7.768;2024-03-23T02:08:20;10.93;;;5.10;;
5867;SDS011;2960;49.142;7.768;2024-03-23T02:10:48;10.93;;;5.23;;
5867;SDS011;2960;49.142;7.768;2024-03-23T02:13:16;10.80;;;5.20;;
5867;SDS011;2960;49.142;7.768;2024-03-23T02:15:43;10.90;;;5.30;;
5867;SDS011;2960;49.142;7.768;2024-03-23T02:18:10;12.47;;;5.70;;
5867;SDS011;2960;49.142;7.768;2024-03-23T02:20:38;11.63;;;5.50;;
5867;SDS011;2960;49.142;7.768;2024-03-23T02:23:10;11.10;;;5.23;;
5867;SDS011;2960;49.142;7.768;2024-03-23T02:25:38;11.97;;;5.83;;
5867;SDS011;2960;49.142;7.768;2024-03-23T02:28:06;11.07;;;5.50;;
5867;SDS011;2960;49.142;7.768;2024-03-23T02:30:32;12.10;;;5.50;;
5867;SDS011;2960;49.142;7.768;2024-03-23T02:33:00;13.23;;;5.87;;
5867;SDS011;2960;49.142;7.768;2024-03-23T02:35:26;13.50;;;5.97;;
5867;SDS011;2960;49.142;7.768;2024-03-23T02:37:53;13.90;;;6.87;;
5867;SDS011;2960;49.142;7.768;2024-03-23T02:40:22;13.70;;;5.83;;
5867;SDS011;2960;49.142;7.768;2024-03-23T02:42:50;12.60;;;6.20;;
5867;SDS011;2960;49.142;7.768;2024-03-23T02:45:16;16.33;;;6.93;;
5867;SDS011;2960;49.142;7.768;2024-03-23T02:47:44;14.10;;;5.93;;
5867;SDS011;2960;49.142;7.768;2024-03-23T02:50:10;15.20;;;6.83;;
5867;SDS011;2960;49.142;7.768;2024-03-23T02:52:38;14.17;;;6.40;;
5867;SDS011;2960;49.142;7.768;2024-03-23T02:55:04;14.33;;;6.30;;
5867;SDS011;2960;49.142;7.768;2024-03-23T02:57:32;18.00;;;8.27;;
5867;SDS011;2960;49.142;7.768;2024-03-23T02:59:58;15.80;;;7.40;;
5867;SDS011;2960;49.142;7.768;2024-03-23T03:02:26;14.53;;;6.60;;
5867;SDS011;2960;49.142;7.768;2024-03-23T03:04:52;15.77;;;7.60;;
5867;SDS011;2960;49.142;7.768;2024-03-23T03:07:19;16.33;;;7.57;;
5867;SDS011;2960;49.142;7.768;2024-03-23T03:09:45;15.97;;;7.67;;
5867;SDS011;2960;49.142;7.768;2024-03-23T03:12:12;18.77;;;8.40;;
5867;SDS011;2960;49.142;7.768;2024-03-23T03:14:40;16.17;;;8.00;;
5867;SDS011;2960;49.142;7.768;2024-03-23T03:17:07;16.33;;;7.57;;
5867;SDS011;2960;49.142;7.768;2024-03-23T03:19:33;15.40;;;7.67;;
5867;SDS011;2960;49.142;7.768;2024-03-23T03:22:01;20.20;;;8.93;;
5867;SDS011;2960;49.142;7.768;2024-03-23T03:24:27;17.80;;;8.83;;
5867;SDS011;2960;49.142;7.768;2024-03-23T03:26:54;17.63;;;8.67;;
5867;SDS011;2960;49.142;7.768;2024-03-23T03:29:20;17.37;;;7.30;;
5867;SDS011;2960;49.142;7.768;2024-03-23T03:31:49;17.83;;;8.40;;
5867;SDS011;2960;49.142;7.768;2024-03-23T03:34:15;18.60;;;7.83;;
5867;SDS011;2960;49.142;7.768;2024-03-23T03:36:42;17.10;;;7.37;;
5867;SDS011;2960;49.142;7.768;2024-03-23T03:39:08;15.00;;;7.70;;
5867;SDS011;2960;49.142;7.768;2024-03-23T03:41:36;14.97;;;7.23;;
5867;SDS011;2960;49.142;7.768;2024-03-23T03:44:02;14.10;;;6.63;;
5867;SDS011;2960;49.142;7.768;2024-03-23T03:46:29;16.27;;;6.87;;
5867;SDS011;2960;49.142;7.768;2024-03-23T03:48:56;16.60;;;6.93;;
5867;SDS011;2960;49.142;7.768;2024-03-23T03:51:23;15.70;;;6.70;;
5867;SDS011;2960;49.142;7.768;2024-03-23T03:53:50;14.10;;;6.50;;
5867;SDS011;2960;49.142;7.768;2024-03-23T03:56:17;14.03;;;6.60;;
5867;SDS011;2960;49.142;7.768;2024-03-23T03:58:43;12.73;;;5.57;;
5867;SDS011;2960;49.142;7.768;2024-03-23T04:01:10;22.17;;;6.43;;
5867;SDS011;2960;49.142;7.768;2024-03-23T04:03:36;14.17;;;6.13;;
5867;SDS011;2960;49.142;7.768;2024-03-23T04:06:06;12.97;;;5.67;;
5867;SDS011;2960;49.142;7.768;2024-03-23T04:08:32;12.50;;;5.90;;
5867;SDS011;2960;49.142;7.768;2024-03-23T04:10:59;12.60;;;5.50;;
5867;SDS011;2960;49.142;7.768;2024-03-23T04:13:25;12.30;;;5.37;;
5867;SDS011;2960;49.142;7.768;2024-03-23T04:15:53;12.90;;;5.53;;
5867;SDS011;2960;49.142;7.768;2024-03-23T04:18:20;12.57;;;5.53;;
5867;SDS011;2960;49.142;7.768;2024-03-23T04:20:48;14.03;;;6.00;;
5867;SDS011;2960;49.142;7.768;2024-03-23T04:23:15;12.30;;;5.13;;
5867;SDS011;2960;49.142;7.768;2024-03-23T04:25:42;11.00;;;5.07;;
5867;SDS011;2960;49.142;7.768;2024-03-23T04:28:08;11.53;;;5.20;;
5867;SDS011;2960;49.142;7.768;2024-03-23T04:30:36;12.00;;;4.90;;
5867;SDS011;2960;49.142;7.768;2024-03-23T04:33:02;11.30;;;5.00;;
5867;SDS011;2960;49.142;7.768;2024-03-23T04:35:30;11.90;;;4.90;;
5867;SDS011;2960;49.142;7.768;2024-03-23T04:37:56;12.20;;;5.07;;
5867;SDS011;2960;49.142;7.768;2024-03-23T04:40:25;11.47;;;4.90;;
5867;SDS011;2960;49.142;7.768;2024-03-23T04:42:52;12.27;;;5.33;;
5867;SDS011;2960;49.142;7.768;2024-03-23T04:45:19;12.20;;;4.77;;
5867;SDS011;2960;49.142;7.768;2024-03-23T04:47:46;10.90;;;4.30;;
5867;SDS011;2960;49.142;7.768;2024-03-23T04:50:13;10.70;;;4.53;;
5867;SDS011;2960;49.142;7.768;2024-03-23T04:52:41;10.77;;;4.50;;
5867;SDS011;2960;49.142;7.768;2024-03-23T04:55:08;10.20;;;4.33;;
5867;SDS011;2960;49.142;7.768;2024-03-23T04:57:38;9.57;;;3.70;;
5867;SDS011;2960;49.142;7.768;2024-03-23T05:00:06;10.73;;;4.30;;
5867;SDS011;2960;49.142;7.768;2024-03-23T05:02:41;9.70;;;3.90;;
5867;SDS011;2960;49.142;7.768;2024-03-23T05:05:11;10.03;;;3.93;;
5867;SDS011;2960;49.142;7.768;2024-03-23T05:07:37;10.73;;;4.33;;
5867;SDS011;2960;49.142;7.768;2024-03-23T05:10:05;10.60;;;4.40;;
5867;SDS011;2960;49.142;7.768;2024-03-23T05:12:35;9.67;;;3.63;;
5867;SDS011;2960;49.142;7.768;2024-03-23T05:15:04;10.00;;;4.10;;
5867;SDS011;2960;49.142;7.768;2024-03-23T05:17:31;10.00;;;4.20;;
5867;SDS011;2960;49.142;7.768;2024-03-23T05:19:59;9.47;;;3.80;;
5867;SDS011;2960;49.142;7.768;2024-03-23T05:22:25;9.53;;;3.90;;
5867;SDS011;2960;49.142;7.768;2024-03-23T05:24:53;9.50;;;3.70;;
5867;SDS011;2960;49.142;7.768;2024-03-23T05:27:19;9.90;;;4.00;;
5867;SDS011;2960;49.142;7.768;2024-03-23T05:29:47;10.20;;;3.83;;
5867;SDS011;2960;49.142;7.768;2024-03-23T05:32:13;9.57;;;3.80;;
5867;SDS011;2960;49.142;7.768;2024-03-23T05:34:41;9.90;;;4.00;;
5867;SDS011;2960;49.142;7.768;2024-03-23T05:37:07;9.40;;;3.60;;
5867;SDS011;2960;49.142;7.768;2024-03-23T05:39:34;9.60;;;4.00;;
5867;SDS011;2960;49.142;7.768;2024-03-23T05:42:01;9.50;;;3.63;;
5867;SDS011;2960;49.142;7.768;2024-03-23T05:44:28;9.47;;;3.50;;
5867;SDS011;2960;49.142;7.768;2024-03-23T05:46:56;9.50;;;3.80;;
5867;SDS011;2960;49.142;7.768;2024-03-23T05:49:23;10.20;;;3.87;;
5867;SDS011;2960;49.142;7.768;2024-03-23T05:51:50;9.50;;;3.80;;
5867;SDS011;2960;49.142;7.768;2024-03-23T05:54:17;9.37;;;3.80;;
5867;SDS011;2960;49.142;7.768;2024-03-23T05:56:43;9.50;;;3.80;;
5867;SDS011;2960;49.142;7.768;2024-03-23T05:59:10;9.23;;;3.40;;
5867;SDS011;2960;49.142;7.768;2024-03-23T06:01:36;9.80;;;3.47;;
5867;SDS011;2960;49.142;7.768;2024-03-23T06:04:05;9.20;;;3.43;;
5867;SDS011;2960;49.142;7.768;2024-03-23T06:06:31;9.20;;;3.27;;
5867;SDS011;2960;49.142;7.768;2024-03-23T06:08:59;9.30;;;3.63;;
5867;SDS011;2960;49.142;7.768;2024-03-23T06:11:25;9.53;;;3.70;;
5867;SDS011;2960;49.142;7.768;2024-03-23T06:13:52;9.17;;;3.40;;
5867;SDS011;2960;49.142;7.768;2024-03-23T06:16:18;10.17;;;3.40;;
5867;SDS011;2960;49.142;7.768;2024-03-23T06:18:48;9.07;;;3.30;;
5867;SDS011;2960;49.142;7.768;2024-03-23T06:21:16;9.13;;;3.60;;
5867;SDS011;2960;49.142;7.768;2024-03-23T06:23:43;9.10;;;3.30;;
5867;SDS011;2960;49.142;7.768;2024-03-23T06:26:15;9.20;;;3.57;;
5867;SDS011;2960;49.142;7.768;2024-03-23T06:28:43;9.20;;;3.50;;
5867;SDS011;2960;49.142;7.768;2024-03-23T06:31:09;9.20;;;3.40;;
5867;SDS011;2960;49.142;7.768;2024-03-23T06:33:36;9.23;;;3.60;;
5867;SDS011;2960;49.142;7.768;2024-03-23T06:36:03;9.10;;;3.40;;
5867;SDS011;2960;49.142;7.768;2024-03-23T06:38:32;9.07;;;3.27;;
5867;SDS011;2960;49.142;7.768;2024-03-23T06:41:00;9.13;;;3.40;;
5867;SDS011;2960;49.142;7.768;2024-03-23T06:43:29;9.20;;;3.50;;
5867;SDS011;2960;49.142;7.768;2024-03-23T06:45:55;9.23;;;3.40;;
5867;SDS011;2960;49.142;7.768;2024-03-23T06:48:23;9.13;;;3.40;;
5867;SDS011;2960;49.142;7.768;2024-03-23T06:50:49;8.97;;;3.20;;
5867;SDS011;2960;49.142;7.768;2024-03-23T06:53:21;9.10;;;3.40;;
5867;SDS011;2960;49.142;7.768;2024-03-23T06:55:51;9.20;;;3.60;;
5867;SDS011;2960;49.142;7.768;2024-03-23T06:58:19;9.27;;;3.63;;
5867;SDS011;2960;49.142;7.768;2024-03-23T07:00:45;9.60;;;3.50;;
5867;SDS011;2960;49.142;7.768;2024-03-23T07:03:13;9.13;;;3.33;;
5867;SDS011;2960;49.142;7.768;2024-03-23T07:05:39;9.07;;;3.23;;
5867;SDS011;2960;49.142;7.768;2024-03-23T07:08:07;9.17;;;3.40;;
5867;SDS011;2960;49.142;7.768;2024-03-23T07:10:33;9.40;;;3.80;;
5867;SDS011;2960;49.142;7.768;2024-03-23T07:13:03;9.07;;;3.33;;
5867;SDS011;2960;49.142;7.768;2024-03-23T07:15:29;9.07;;;3.20;;
5867;SDS011;2960;49.142;7.768;2024-03-23T07:17:56;9.07;;;3.30;;
5867;SDS011;2960;49.142;7.768;2024-03-23T07:20:22;9.10;;;3.40;;
5867;SDS011;2960;49.142;7.768;2024-03-23T07:22:49;9.40;;;3.60;;
5867;SDS011;2960;49.142;7.768;2024-03-23T07:25:15;9.27;;;3.37;;
5867;SDS011;2960;49.142;7.768;2024-03-23T07:27:43;9.40;;;3.77;;
5867;SDS011;2960;49.142;7.768;2024-03-23T07:30:10;11.10;;;3.60;;
5867;SDS011;2960;49.142;7.768;2024-03-23T07:32:38;10.23;;;3.80;;
5867;SDS011;2960;49.142;7.768;2024-03-23T07:35:04;10.83;;;4.47;;
5867;SDS011;2960;49.142;7.768;2024-03-23T07:37:32;9.67;;;4.07;;
5867;SDS011;2960;49.142;7.768;2024-03-23T07:39:58;9.53;;;3.60;;
5867;SDS011;2960;49.142;7.768;2024-03-23T07:42:25;10.87;;;4.33;;
5867;SDS011;2960;49.142;7.768;2024-03-23T07:44:51;10.37;;;4.20;;
5867;SDS011;2960;49.142;7.768;2024-03-23T07:47:23;11.27;;;4.47;;
5867;SDS011;2960;49.142;7.768;2024-03-23T07:49:49;11.47;;;4.90;;
5867;SDS011;2960;49.142;7.768;2024-03-23T07:52:16;12.03;;;4.30;;
5867;SDS011;2960;49.142;7.768;2024-03-23T07:54:42;11.73;;;4.40;;
5867;SDS011;2960;49.142;7.768;2024-03-23T07:57:09;11.63;;;4.80;;
5867;SDS011;2960;49.142;7.768;2024-03-23T07:59:35;11.20;;;4.47;;
5867;SDS011;2960;49.142;7.768;2024-03-23T08:02:02;11.60;;;4.47;;
5867;SDS011;2960;49.142;7.768;2024-03-23T08:04:30;9.80;;;4.13;;
5867;SDS011;2960;49.142;7.768;2024-03-23T08:06:58;11.40;;;4.90;;
5867;SDS011;2960;49.142;7.768;2024-03-23T08:09:24;11.07;;;4.67;;
5867;SDS011;2960;49.142;7.768;2024-03-23T08:11:51;10.83;;;4.40;;
5867;SDS011;2960;49.142;7.768;2024-03-23T08:14:17;10.13;;;3.80;;
5867;SDS011;2960;49.142;7.768;2024-03-23T08:16:44;10.67;;;4.30;;
5867;SDS011;2960;49.142;7.768;2024-03-23T08:19:13;11.90;;;4.40;;
5867;SDS011;2960;49.142;7.768;2024-03-23T08:21:42;12.20;;;4.60;;
5867;SDS011;2960;49.142;7.768;2024-03-23T08:24:08;11.27;;;4.73;;
5867;SDS011;2960;49.142;7.768;2024-03-23T08:26:35;11.40;;;4.73;;
5867;SDS011;2960;49.142;7.768;2024-03-23T08:29:02;11.80;;;4.50;;
5867;SDS011;2960;49.142;7.768;2024-03-23T08:31:30;12.30;;;4.93;;
5867;SDS011;2960;49.142;7.768;2024-03-23T08:33:57;14.03;;;4.30;;
5867;SDS011;2960;49.142;7.768;2024-03-23T08:36:23;10.53;;;4.20;;
5867;SDS011;2960;49.142;7.768;2024-03-23T08:38:52;11.70;;;4.90;;
5867;SDS011;2960;49.142;7.768;2024-03-23T08:41:20;11.30;;;4.67;;
5867;SDS011;2960;49.142;7.768;2024-03-23T08:43:47;10.90;;;4.80;;
5867;SDS011;2960;49.142;7.768;2024-03-23T08:46:13;11.57;;;4.90;;
5867;SDS011;2960;49.142;7.768;2024-03-23T08:48:42;11.70;;;4.43;;
5867;SDS011;2960;49.142;7.768;2024-03-23T08:51:10;12.40;;;5.17;;
5867;SDS011;2960;49.142;7.768;2024-03-23T08:53:40;13.17;;;5.00;;
5867;SDS011;2960;49.142;7.768;2024-03-23T08:56:09;11.90;;;4.60;;
5867;SDS011;2960;49.142;7.768;2024-03-23T08:58:37;15.27;;;5.20;;
5867;SDS011;2960;49.142;7.768;2024-03-23T09:01:05;13.00;;;4.57;;
5867;SDS011;2960;49.142;7.768;2024-03-23T09:03:34;11.67;;;4.80;;
5867;SDS011;2960;49.142;7.768;2024-03-23T09:06:00;11.87;;;5.00;;
5867;SDS011;2960;49.142;7.768;2024-03-23T09:08:29;11.30;;;4.83;;
5867;SDS011;2960;49.142;7.768;2024-03-23T09:10:55;12.90;;;5.27;;
5867;SDS011;2960;49.142;7.768;2024-03-23T09:13:23;11.80;;;4.20;;
5867;SDS011;2960;49.142;7.768;2024-03-23T09:15:50;12.10;;;4.90;;
5867;SDS011;2960;49.142;7.768;2024-03-23T09:18:21;18.30;;;4.90;;
5867;SDS011;2960;49.142;7.768;2024-03-23T09:20:47;13.20;;;5.27;;
5867;SDS011;2960;49.142;7.768;2024-03-23T09:23:14;12.53;;;5.03;;
5867;SDS011;2960;49.142;7.768;2024-03-23T09:25:40;10.73;;;4.60;;
5867;SDS011;2960;49.142;7.768;2024-03-23T09:28:08;11.97;;;4.47;;
5867;SDS011;2960;49.142;7.768;2024-03-23T09:30:35;10.10;;;4.17;;
5867;SDS011;2960;49.142;7.768;2024-03-23T09:33:07;10.80;;;4.50;;
5867;SDS011;2960;49.142;7.768;2024-03-23T09:35:36;10.37;;;4.30;;
5867;SDS011;2960;49.142;7.768;2024-03-23T09:38:06;11.50;;;4.90;;
5867;SDS011;2960;49.142;7.768;2024-03-23T09:40:34;12.90;;;4.13;;
5867;SDS011;2960;49.142;7.768;2024-03-23T09:43:05;11.40;;;4.40;;
5867;SDS011;2960;49.142;7.768;2024-03-23T09:45:32;10.90;;;4.43;;
5867;SDS011;2960;49.142;7.768;2024-03-23T09:48:05;10.40;;;4.20;;
5867;SDS011;2960;49.142;7.768;2024-03-23T09:50:32;10.00;;;4.13;;
5867;SDS011;2960;49.142;7.768;2024-03-23T09:52:59;11.10;;;4.37;;
5867;SDS011;2960;49.142;7.768;2024-03-23T09:55:26;11.40;;;4.13;;
5867;SDS011;2960;49.142;7.768;2024-03-23T09:57:53;11.70;;;4.73;;
5867;SDS011;2960;49.142;7.768;2024-03-23T10:00:19;12.17;;;4.67;;
5867;SDS011;2960;49.142;7.768;2024-03-23T10:02:52;10.87;;;4.23;;
5867;SDS011;2960;49.142;7.768;2024-03-23T10:05:21;12.60;;;4.60;;
5867;SDS011;2960;49.142;7.768;2024-03-23T10:07:49;11.70;;;3.90;;
5867;SDS011;2960;49.142;7.768;2024-03-23T10:10:16;15.33;;;4.50;;
5867;SDS011;2960;49.142;7.768;2024-03-23T10:12:43;11.00;;;4.00;;
5867;SDS011;2960;49.142;7.768;2024-03-23T10:15:15;10.63;;;3.80;;
5867;SDS011;2960;49.142;7.768;2024-03-23T10:17:45;12.17;;;4.40;;
5867;SDS011;2960;49.142;7.768;2024-03-23T10:20:13;13.03;;;4.33;;
5867;SDS011;2960;49.142;7.768;2024-03-23T10:22:47;11.50;;;4.73;;
5867;SDS011;2960;49.142;7.768;2024-03-23T10:25:14;10.93;;;4.43;;
5867;SDS011;2960;49.142;7.768;2024-03-23T10:27:41;12.17;;;4.63;;
5867;SDS011;2960;49.142;7.768;2024-03-23T10:30:08;12.20;;;4.77;;
5867;SDS011;2960;49.142;7.768;2024-03-23T10:32:38;12.60;;;4.60;;
5867;SDS011;2960;49.142;7.768;2024-03-23T10:35:15;12.40;;;4.27;;
5867;SDS011;2960;49.142;7.768;2024-03-23T10:37:45;12.73;;;4.83;;
5867;SDS011;2960;49.142;7.768;2024-03-23T10:40:12;12.23;;;4.80;;
5867;SDS011;2960;49.142;7.768;2024-03-23T10:42:39;13.33;;;4.80;;
5867;SDS011;2960;49.142;7.768;2024-03-23T10:45:06;16.43;;;4.53;;
5867;SDS011;2960;49.142;7.768;2024-03-23T10:47:35;12.10;;;4.50;;
5867;SDS011;2960;49.142;7.768;2024-03-23T10:50:03;11.50;;;4.27;;
5867;SDS011;2960;49.142;7.768;2024-03-23T10:52:33;14.50;;;5.00;;
5867;SDS011;2960;49.142;7.768;2024-03-23T10:55:00;11.33;;;4.57;;
5867;SDS011;2960;49.142;7.768;2024-03-23T10:57:33;11.60;;;4.07;;
5867;SDS011;2960;49.142;7.768;2024-03-23T11:00:06;11.80;;;4.10;;
5867;SDS011;2960;49.142;7.768;2024-03-23T11:02:35;11.20;;;4.77;;
5867;SDS011;2960;49.142;7.768;2024-03-23T11:05:02;11.60;;;4.77;;
5867;SDS011;2960;49.142;7.768;2024-03-23T11:07:58;11.30;;;4.60;;
5867;SDS011;2960;49.142;7.768;2024-03-23T11:10:25;11.33;;;4.73;;
5867;SDS011;2960;49.142;7.768;2024-03-23T11:12:54;10.50;;;4.27;;
5867;SDS011;2960;49.142;7.768;2024-03-23T11:15:21;15.00;;;4.43;;
5867;SDS011;2960;49.142;7.768;2024-03-23T11:18:04;13.77;;;4.43;;
5867;SDS011;2960;49.142;7.768;2024-03-23T11:20:33;11.50;;;4.00;;
5867;SDS011;2960;49.142;7.768;2024-03-23T11:23:02;12.93;;;3.80;;
5867;SDS011;2960;49.142;7.768;2024-03-23T11:25:29;10.90;;;3.70;;
5867;SDS011;2960;49.142;7.768;2024-03-23T11:27:57;11.10;;;3.97;;
5867;SDS011;2960;49.142;7.768;2024-03-23T11:30:36;11.70;;;4.10;;
5867;SDS011;2960;49.142;7.768;2024-03-23T11:33:04;12.60;;;4.80;;
5867;SDS011;2960;49.142;7.768;2024-03-23T11:35:30;11.30;;;4.40;;
5867;SDS011;2960;49.142;7.768;2024-03-23T11:38:04;14.90;;;5.00;;
5867;SDS011;2960;49.142;7.768;2024-03-23T11:40:35;11.93;;;4.50;;
5867;SDS011;2960;49.142;7.768;2024-03-23T11:43:05;11.30;;;4.03;;
5867;SDS011;2960;49.142;7.768;2024-03-23T11:45:36;11.70;;;4.40;;
5867;SDS011;2960;49.142;7.768;2024-03-23T11:48:04;12.17;;;4.13;;
5867;SDS011;2960;49.142;7.768;2024-03-23T11:50:33;11.23;;;4.67;;
5867;SDS011;2960;49.142;7.768;2024-03-23T11:53:11;10.83;;;3.90;;
5867;SDS011;2960;49.142;7.768;2024-03-23T11:55:42;11.20;;;4.80;;
5867;SDS011;2960;49.142;7.768;2024-03-23T11:58:13;10.07;;;3.70;;
5867;SDS011;2960;49.142;7.768;2024-03-23T12:00:40;10.50;;;4.17;;
5867;SDS011;2960;49.142;7.768;2024-03-23T12:03:08;12.00;;;4.33;;
5867;SDS011;2960;49.142;7.768;2024-03-23T12:05:35;10.50;;;4.00;;
5867;SDS011;2960;49.142;7.768;2024-03-23T12:08:20;11.57;;;4.17;;
5867;SDS011;2960;49.142;7.768;2024-03-23T12:10:49;11.50;;;4.30;;
5867;SDS011;2960;49.142;7.768;2024-03-23T12:13:18;11.33;;;3.80;;
5867;SDS011;2960;49.142;7.768;2024-03-23T12:15:46;10.90;;;3.87;;
5867;SDS011;2960;49.142;7.768;2024-03-23T12:18:15;10.43;;;3.83;;
5867;SDS011;2960;49.142;7.768;2024-03-23T12:20:42;10.50;;;4.40;;
5867;SDS011;2960;49.142;7.768;2024-03-23T12:23:09;10.50;;;3.87;;
5867;SDS011;2960;49.142;7.768;2024-03-23T12:25:39;11.90;;;4.57;;
5867;SDS011;2960;49.142;7.768;2024-03-23T12:28:06;10.30;;;4.30;;
5867;SDS011;2960;49.142;7.768;2024-03-23T12:30:34;10.70;;;3.80;;
5867;SDS011;2960;49.142;7.768;2024-03-23T12:33:01;9.40;;;3.57;;
5867;SDS011;2960;49.142;7.768;2024-03-23T12:35:29;10.30;;;4.40;;
5867;SDS011;2960;49.142;7.768;2024-03-23T12:37:56;9.70;;;3.90;;
5867;SDS011;2960;49.142;7.768;2024-03-23T12:40:24;9.70;;;4.00;;
5867;SDS011;2960;49.142;7.768;2024-03-23T12:42:51;9.80;;;4.10;;
5867;SDS011;2960;49.142;7.768;2024-03-23T12:45:18;12.13;;;3.60;;
5867;SDS011;2960;49.142;7.768;2024-03-23T12:47:45;9.80;;;3.80;;
5867;SDS011;2960;49.142;7.768;2024-03-23T12:50:12;10.80;;;3.90;;
5867;SDS011;2960;49.142;7.768;2024-03-23T12:52:38;10.07;;;3.97;;
5867;SDS011;2960;49.142;7.768;2024-03-23T12:55:05;10.00;;;4.30;;
5867;SDS011;2960;49.142;7.768;2024-03-23T12:57:32;10.10;;;3.87;;
5867;SDS011;2960;49.142;7.768;2024-03-23T13:00:01;10.00;;;4.00;;
5867;SDS011;2960;49.142;7.768;2024-03-23T13:02:29;10.10;;;3.90;;
5867;SDS011;2960;49.142;7.768;2024-03-23T13:04:56;10.30;;;4.37;;
5867;SDS011;2960;49.142;7.768;2024-03-23T13:07:23;9.90;;;4.20;;
5867;SDS011;2960;49.142;7.768;2024-03-23T13:09:50;11.07;;;4.00;;
5867;SDS011;2960;49.142;7.768;2024-03-23T13:12:17;9.50;;;3.80;;
5867;SDS011;2960;49.142;7.768;2024-03-23T13:14:45;10.17;;;4.30;;
5867;SDS011;2960;49.142;7.768;2024-03-23T13:17:13;10.20;;;4.33;;
5867;SDS011;2960;49.142;7.768;2024-03-23T13:19:40;9.90;;;4.33;;
5867;SDS011;2960;49.142;7.768;2024-03-23T13:22:06;10.30;;;4.37;;
5867;SDS011;2960;49.142;7.768;2024-03-23T13:24:36;10.10;;;4.63;;
5867;SDS011;2960;49.142;7.768;2024-03-23T13:27:03;9.97;;;4.40;;
5867;SDS011;2960;49.142;7.768;2024-03-23T13:29:33;10.40;;;4.50;;
5867;SDS011;2960;49.142;7.768;2024-03-23T13:32:00;9.60;;;4.13;;
5867;SDS011;2960;49.142;7.768;2024-03-23T13:34:28;10.10;;;4.50;;
5867;SDS011;2960;49.142;7.768;2024-03-23T13:36:54;10.07;;;4.57;;
5867;SDS011;2960;49.142;7.768;2024-03-23T13:39:23;10.17;;;3.77;;
5867;SDS011;2960;49.142;7.768;2024-03-23T13:41:50;9.53;;;4.00;;
5867;SDS011;2960;49.142;7.768;2024-03-23T13:44:17;10.67;;;4.17;;
5867;SDS011;2960;49.142;7.768;2024-03-23T13:46:43;10.00;;;3.80;;
5867;SDS011;2960;49.142;7.768;2024-03-23T13:49:14;9.57;;;4.13;;
5867;SDS011;2960;49.142;7.768;2024-03-23T13:51:53;9.83;;;4.60;;
5867;SDS011;2960;49.142;7.768;2024-03-23T13:54:20;10.80;;;4.50;;
5867;SDS011;2960;49.142;7.768;2024-03-23T13:56:47;10.40;;;4.33;;
5867;SDS011;2960;49.142;7.768;2024-03-23T13:59:15;9.60;;;4.03;;
5867;SDS011;2960;49.142;7.768;2024-03-23T14:01:42;10.47;;;4.07;;
5867;SDS011;2960;49.142;7.768;2024-03-23T14:04:10;9.50;;;3.80;;
5867;SDS011;2960;49.142;7.768;2024-03-23T14:06:36;9.63;;;3.67;;
5867;SDS011;2960;49.142;7.768;2024-03-23T14:09:05;11.30;;;3.87;;
5867;SDS011;2960;49.142;7.768;2024-03-23T14:11:33;10.33;;;3.87;;
5867;SDS011;2960;49.142;7.768;2024-03-23T14:14:01;10.33;;;3.80;;
5867;SDS011;2960;49.142;7.768;2024-03-23T14:16:28;10.07;;;3.80;;
5867;SDS011;2960;49.142;7.768;2024-03-23T14:18:55;11.77;;;3.67;;
5867;SDS011;2960;49.142;7.768;2024-03-23T14:21:22;9.80;;;3.83;;
5867;SDS011;2960;49.142;7.768;2024-03-23T14:23:50;9.87;;;3.90;;
5867;SDS011;2960;49.142;7.768;2024-03-23T14:26:18;11.30;;;4.20;;
5867;SDS011;2960;49.142;7.768;2024-03-23T14:28:45;10.00;;;3.67;;
5867;SDS011;2960;49.142;7.768;2024-03-23T14:31:11;9.67;;;3.60;;
5867;SDS011;2960;49.142;7.768;2024-03-23T14:33:38;11.43;;;4.03;;
5867;SDS011;2960;49.142;7.768;2024-03-23T14:36:11;10.77;;;4.40;;
5867;SDS011;2960;49.142;7.768;2024-03-23T14:38:38;10.30;;;4.17;;
5867;SDS011;2960;49.142;7.768;2024-03-23T14:41:04;9.63;;;3.90;;
5867;SDS011;2960;49.142;7.768;2024-03-23T14:43:32;9.77;;;3.93;;
5867;SDS011;2960;49.142;7.768;2024-03-23T14:46:05;10.97;;;3.60;;
5867;SDS011;2960;49.142;7.768;2024-03-23T14:48:34;9.70;;;3.70;;
5867;SDS011;2960;49.142;7.768;2024-03-23T14:51:00;9.47;;;3.67;;
5867;SDS011;2960;49.142;7.768;2024-03-23T14:53:30;9.80;;;3.93;;
5867;SDS011;2960;49.142;7.768;2024-03-23T14:55:56;9.43;;;3.70;;
5867;SDS011;2960;49.142;7.768;2024-03-23T14:58:25;9.47;;;3.70;;
5867;SDS011;2960;49.142;7.768;2024-03-23T15:00:52;14.30;;;3.97;;
5867;SDS011;2960;49.142;7.768;2024-03-23T15:03:24;9.47;;;3.70;;
5867;SDS011;2960;49.142;7.768;2024-03-23T15:05:51;9.83;;;3.90;;
5867;SDS011;2960;49.142;7.768;2024-03-23T15:08:20;9.60;;;3.83;;
5867;SDS011;2960;49.142;7.768;2024-03-23T15:10:46;9.60;;;3.70;;
5867;SDS011;2960;49.142;7.768;2024-03-23T15:13:13;10.00;;;3.60;;
5867;SDS011;2960;49.142;7.768;2024-03-23T15:15:40;9.60;;;3.57;;
5867;SDS011;2960;49.142;7.768;2024-03-23T15:18:10;10.00;;;3.57;;
5867;SDS011;2960;49.142;7.768;2024-03-23T15:20:37;9.80;;;3.57;;
5867;SDS011;2960;49.142;7.768;2024-03-23T15:23:05;9.47;;;3.60;;
5867;SDS011;2960;49.142;7.768;2024-03-23T15:25:31;9.70;;;3.60;;
5867;SDS011;2960;49.142;7.768;2024-03-23T15:27:58;9.40;;;3.53;;
5867;SDS011;2960;49.142;7.768;2024-03-23T15:30:25;10.30;;;3.80;;
5867;SDS011;2960;49.142;7.768;2024-03-23T15:32:53;9.37;;;3.57;;
5867;SDS011;2960;49.142;7.768;2024-03-23T15:35:20;10.73;;;4.23;;
5867;SDS011;2960;49.142;7.768;2024-03-23T15:37:48;10.40;;;4.40;;
5867;SDS011;2960;49.142;7.768;2024-03-23T15:40:15;10.27;;;4.30;;
5867;SDS011;2960;49.142;7.768;2024-03-23T15:42:42;9.90;;;4.37;;
5867;SDS011;2960;49.142;7.768;2024-03-23T15:45:09;9.50;;;3.70;;
5867;SDS011;2960;49.142;7.768;2024-03-23T15:47:36;9.70;;;3.80;;
5867;SDS011;2960;49.142;7.768;2024-03-23T15:50:03;9.70;;;4.03;;
5867;SDS011;2960;49.142;7.768;2024-03-23T15:52:34;10.10;;;3.90;;
5867;SDS011;2960;49.142;7.768;2024-03-23T15:55:01;11.47;;;3.90;;
5867;SDS011;2960;49.142;7.768;2024-03-23T15:57:31;9.80;;;4.23;;
5867;SDS011;2960;49.142;7.768;2024-03-23T16:00:00;9.70;;;3.60;;
5867;SDS011;2960;49.142;7.768;2024-03-23T16:02:31;10.37;;;3.83;;